<?xml version="1.0" encoding="UTF-8"?>
<gpx version="1.1" creator="https://www.youtrack.es" xsi:schemaLocation="http://www.topografix.com/GPX/1/1 http://www.topografix.com/GPX/1/1/gpx.xsd http://www.garmin.com/xmlschemas/GpxExtensions/v3 http://www.garmin.com/xmlschemas/GpxExtensionsv3.xsd http://www.garmin.com/xmlschemas/TrackPointExtension/v1 http://www.garmin.com/xmlschemas/TrackPointExtensionv1.xsd" xmlns:gpxtpx="http://www.garmin.com/xmlschemas/TrackPointExtension/v1" xmlns:gpxx="http://www.garmin.com/xmlschemas/GpxExtensions/v3" xmlns:xsi="http://www.w3.org/2001/XMLSchema-instance">
  <metadata>
    <link href="https://www.youtrack.es">
      <text>YouTrack.es</text>
    </link>
    <time>2026-05-08T14:29:38Z</time>
  </metadata>
  <trk>
    <src>https://www.youtrack.es</src>
    <link href="https://www.youtrack.es/ruta/2992-rasos-a-saldes">
      <text>YouTrack.es</text>
    </link>
    <trkseg>
      <trkpt lat="42.141769" lon="1.764539">
        <ele>1883.079</ele>
        <time>2018-11-19T08:22:28Z</time>
      </trkpt>
      <trkpt lat="42.142882" lon="1.764368">
        <ele>1876.005</ele>
        <time>2018-11-19T08:22:33Z</time>
      </trkpt>
      <trkpt lat="42.143909" lon="1.764143">
        <ele>1863.025</ele>
        <time>2018-11-19T08:22:38Z</time>
      </trkpt>
      <trkpt lat="42.144354" lon="1.764067">
        <ele>1859.008</ele>
        <time>2018-11-19T08:22:43Z</time>
      </trkpt>
      <trkpt lat="42.144744" lon="1.764303">
        <ele>1857.058</ele>
        <time>2018-11-19T08:22:48Z</time>
      </trkpt>
      <trkpt lat="42.145181" lon="1.763842">
        <ele>1851.041</ele>
        <time>2018-11-19T08:22:53Z</time>
      </trkpt>
      <trkpt lat="42.146176" lon="1.762683">
        <ele>1840.043</ele>
        <time>2018-11-19T08:22:58Z</time>
      </trkpt>
      <trkpt lat="42.147830" lon="1.761686">
        <ele>1821.068</ele>
        <time>2018-11-19T08:23:03Z</time>
      </trkpt>
      <trkpt lat="42.149755" lon="1.760838">
        <ele>1797.068</ele>
        <time>2018-11-19T08:23:08Z</time>
      </trkpt>
      <trkpt lat="42.151871" lon="1.760666">
        <ele>1774.049</ele>
        <time>2018-11-19T08:23:13Z</time>
      </trkpt>
      <trkpt lat="42.154043" lon="1.761020">
        <ele>1745.029</ele>
        <time>2018-11-19T08:23:18Z</time>
      </trkpt>
      <trkpt lat="42.155562" lon="1.761299">
        <ele>1736.010</ele>
        <time>2018-11-19T08:23:23Z</time>
      </trkpt>
      <trkpt lat="42.156214" lon="1.760484">
        <ele>1730.011</ele>
        <time>2018-11-19T08:23:28Z</time>
      </trkpt>
      <trkpt lat="42.155808" lon="1.759293">
        <ele>1725.021</ele>
        <time>2018-11-19T08:23:33Z</time>
      </trkpt>
      <trkpt lat="42.155745" lon="1.758231">
        <ele>1720.003</ele>
        <time>2018-11-19T08:23:38Z</time>
      </trkpt>
      <trkpt lat="42.156977" lon="1.755871">
        <ele>1682.008</ele>
        <time>2018-11-19T08:23:43Z</time>
      </trkpt>
      <trkpt lat="42.157510" lon="1.754369">
        <ele>1674.022</ele>
        <time>2018-11-19T08:23:48Z</time>
      </trkpt>
      <trkpt lat="42.157828" lon="1.754025">
        <ele>1672.025</ele>
        <time>2018-11-19T08:23:53Z</time>
      </trkpt>
      <trkpt lat="42.158838" lon="1.753993">
        <ele>1661.027</ele>
        <time>2018-11-19T08:23:58Z</time>
      </trkpt>
      <trkpt lat="42.158942" lon="1.754390">
        <ele>1665.032</ele>
        <time>2018-11-19T08:24:03Z</time>
      </trkpt>
      <trkpt lat="42.159069" lon="1.755302">
        <ele>1664.022</ele>
        <time>2018-11-19T08:24:08Z</time>
      </trkpt>
      <trkpt lat="42.159204" lon="1.755838">
        <ele>1666.093</ele>
        <time>2018-11-19T08:24:13Z</time>
      </trkpt>
      <trkpt lat="42.159801" lon="1.756160">
        <ele>1667.043</ele>
        <time>2018-11-19T08:24:18Z</time>
      </trkpt>
      <trkpt lat="42.160206" lon="1.756611">
        <ele>1668.094</ele>
        <time>2018-11-19T08:24:23Z</time>
      </trkpt>
      <trkpt lat="42.160787" lon="1.756815">
        <ele>1667.034</ele>
        <time>2018-11-19T08:24:28Z</time>
      </trkpt>
      <trkpt lat="42.161550" lon="1.756825">
        <ele>1664.055</ele>
        <time>2018-11-19T08:24:33Z</time>
      </trkpt>
      <trkpt lat="42.162131" lon="1.756353">
        <ele>1665.010</ele>
        <time>2018-11-19T08:24:38Z</time>
      </trkpt>
      <trkpt lat="42.162409" lon="1.755999">
        <ele>1665.008</ele>
        <time>2018-11-19T08:24:43Z</time>
      </trkpt>
      <trkpt lat="42.162576" lon="1.755667">
        <ele>1672.024</ele>
        <time>2018-11-19T08:24:48Z</time>
      </trkpt>
      <trkpt lat="42.163149" lon="1.755667">
        <ele>1666.047</ele>
        <time>2018-11-19T08:24:53Z</time>
      </trkpt>
      <trkpt lat="42.163523" lon="1.756246">
        <ele>1656.059</ele>
        <time>2018-11-19T08:24:58Z</time>
      </trkpt>
      <trkpt lat="42.163769" lon="1.756600">
        <ele>1651.014</ele>
        <time>2018-11-19T08:25:03Z</time>
      </trkpt>
      <trkpt lat="42.163976" lon="1.757094">
        <ele>1649.094</ele>
        <time>2018-11-19T08:25:08Z</time>
      </trkpt>
      <trkpt lat="42.164724" lon="1.756611">
        <ele>1648.025</ele>
        <time>2018-11-19T08:25:13Z</time>
      </trkpt>
      <trkpt lat="42.164898" lon="1.755860">
        <ele>1645.075</ele>
        <time>2018-11-19T08:25:18Z</time>
      </trkpt>
      <trkpt lat="42.165217" lon="1.755087">
        <ele>1641.056</ele>
        <time>2018-11-19T08:25:23Z</time>
      </trkpt>
      <trkpt lat="42.165121" lon="1.754551">
        <ele>1638.091</ele>
        <time>2018-11-19T08:25:28Z</time>
      </trkpt>
      <trkpt lat="42.165407" lon="1.754014">
        <ele>1632.081</ele>
        <time>2018-11-19T08:25:33Z</time>
      </trkpt>
      <trkpt lat="42.165598" lon="1.753778">
        <ele>1633.019</ele>
        <time>2018-11-19T08:25:38Z</time>
      </trkpt>
      <trkpt lat="42.166012" lon="1.753145">
        <ele>1636.008</ele>
        <time>2018-11-19T08:25:43Z</time>
      </trkpt>
      <trkpt lat="42.166147" lon="1.752813">
        <ele>1636.040</ele>
        <time>2018-11-19T08:25:48Z</time>
      </trkpt>
      <trkpt lat="42.166378" lon="1.752577">
        <ele>1638.073</ele>
        <time>2018-11-19T08:25:53Z</time>
      </trkpt>
      <trkpt lat="42.166648" lon="1.752040">
        <ele>1640.075</ele>
        <time>2018-11-19T08:25:58Z</time>
      </trkpt>
      <trkpt lat="42.166672" lon="1.751268">
        <ele>1638.020</ele>
        <time>2018-11-19T08:26:03Z</time>
      </trkpt>
      <trkpt lat="42.167022" lon="1.750710">
        <ele>1641.040</ele>
        <time>2018-11-19T08:26:08Z</time>
      </trkpt>
      <trkpt lat="42.167316" lon="1.750345">
        <ele>1644.041</ele>
        <time>2018-11-19T08:26:13Z</time>
      </trkpt>
      <trkpt lat="42.167960" lon="1.749723">
        <ele>1643.051</ele>
        <time>2018-11-19T08:26:18Z</time>
      </trkpt>
      <trkpt lat="42.168405" lon="1.748704">
        <ele>1636.032</ele>
        <time>2018-11-19T08:26:23Z</time>
      </trkpt>
      <trkpt lat="42.168453" lon="1.748382">
        <ele>1632.086</ele>
        <time>2018-11-19T08:26:28Z</time>
      </trkpt>
      <trkpt lat="42.168525" lon="1.748221">
        <ele>1632.060</ele>
        <time>2018-11-19T08:26:33Z</time>
      </trkpt>
      <trkpt lat="42.168859" lon="1.747781">
        <ele>1626.026</ele>
        <time>2018-11-19T08:26:38Z</time>
      </trkpt>
      <trkpt lat="42.169344" lon="1.747588">
        <ele>1621.008</ele>
        <time>2018-11-19T08:26:43Z</time>
      </trkpt>
      <trkpt lat="42.169527" lon="1.747245">
        <ele>1617.059</ele>
        <time>2018-11-19T08:26:48Z</time>
      </trkpt>
      <trkpt lat="42.169495" lon="1.747019">
        <ele>1613.072</ele>
        <time>2018-11-19T08:26:53Z</time>
      </trkpt>
      <trkpt lat="42.169272" lon="1.746708">
        <ele>1610.044</ele>
        <time>2018-11-19T08:26:58Z</time>
      </trkpt>
      <trkpt lat="42.169248" lon="1.746472">
        <ele>1607.039</ele>
        <time>2018-11-19T08:27:03Z</time>
      </trkpt>
      <trkpt lat="42.169614" lon="1.746311">
        <ele>1604.099</ele>
        <time>2018-11-19T08:27:08Z</time>
      </trkpt>
      <trkpt lat="42.169908" lon="1.746140">
        <ele>1600.080</ele>
        <time>2018-11-19T08:27:13Z</time>
      </trkpt>
      <trkpt lat="42.169940" lon="1.745989">
        <ele>1600.010</ele>
        <time>2018-11-19T08:27:18Z</time>
      </trkpt>
      <trkpt lat="42.169622" lon="1.745796">
        <ele>1594.091</ele>
        <time>2018-11-19T08:27:23Z</time>
      </trkpt>
      <trkpt lat="42.169240" lon="1.745474">
        <ele>1600.054</ele>
        <time>2018-11-19T08:27:28Z</time>
      </trkpt>
      <trkpt lat="42.169216" lon="1.745206">
        <ele>1599.056</ele>
        <time>2018-11-19T08:27:33Z</time>
      </trkpt>
      <trkpt lat="42.169320" lon="1.744916">
        <ele>1587.011</ele>
        <time>2018-11-19T08:27:38Z</time>
      </trkpt>
      <trkpt lat="42.169662" lon="1.744702">
        <ele>1576.008</ele>
        <time>2018-11-19T08:27:43Z</time>
      </trkpt>
      <trkpt lat="42.169606" lon="1.744434">
        <ele>1574.036</ele>
        <time>2018-11-19T08:27:48Z</time>
      </trkpt>
      <trkpt lat="42.169479" lon="1.744283">
        <ele>1582.019</ele>
        <time>2018-11-19T08:27:53Z</time>
      </trkpt>
      <trkpt lat="42.169590" lon="1.744101">
        <ele>1572.041</ele>
        <time>2018-11-19T08:27:58Z</time>
      </trkpt>
      <trkpt lat="42.170179" lon="1.744123">
        <ele>1558.056</ele>
        <time>2018-11-19T08:28:03Z</time>
      </trkpt>
      <trkpt lat="42.170942" lon="1.744133">
        <ele>1552.016</ele>
        <time>2018-11-19T08:28:08Z</time>
      </trkpt>
      <trkpt lat="42.170990" lon="1.743779">
        <ele>1547.087</ele>
        <time>2018-11-19T08:28:13Z</time>
      </trkpt>
      <trkpt lat="42.171411" lon="1.743640">
        <ele>1545.087</ele>
        <time>2018-11-19T08:28:18Z</time>
      </trkpt>
      <trkpt lat="42.171538" lon="1.743178">
        <ele>1539.028</ele>
        <time>2018-11-19T08:28:23Z</time>
      </trkpt>
      <trkpt lat="42.171888" lon="1.742717">
        <ele>1538.012</ele>
        <time>2018-11-19T08:28:28Z</time>
      </trkpt>
      <trkpt lat="42.172175" lon="1.741966">
        <ele>1526.032</ele>
        <time>2018-11-19T08:28:33Z</time>
      </trkpt>
      <trkpt lat="42.172270" lon="1.741590">
        <ele>1522.005</ele>
        <time>2018-11-19T08:28:38Z</time>
      </trkpt>
      <trkpt lat="42.172572" lon="1.741108">
        <ele>1519.008</ele>
        <time>2018-11-19T08:28:43Z</time>
      </trkpt>
      <trkpt lat="42.172397" lon="1.740271">
        <ele>1507.072</ele>
        <time>2018-11-19T08:28:48Z</time>
      </trkpt>
      <trkpt lat="42.172063" lon="1.739573">
        <ele>1496.015</ele>
        <time>2018-11-19T08:28:53Z</time>
      </trkpt>
      <trkpt lat="42.172349" lon="1.738919">
        <ele>1489.027</ele>
        <time>2018-11-19T08:28:58Z</time>
      </trkpt>
      <trkpt lat="42.173009" lon="1.737674">
        <ele>1487.072</ele>
        <time>2018-11-19T08:29:03Z</time>
      </trkpt>
      <trkpt lat="42.173137" lon="1.737267">
        <ele>1484.082</ele>
        <time>2018-11-19T08:29:08Z</time>
      </trkpt>
      <trkpt lat="42.173677" lon="1.737235">
        <ele>1491.063</ele>
        <time>2018-11-19T08:29:13Z</time>
      </trkpt>
      <trkpt lat="42.173590" lon="1.736526">
        <ele>1494.013</ele>
        <time>2018-11-19T08:29:18Z</time>
      </trkpt>
      <trkpt lat="42.173240" lon="1.736065">
        <ele>1492.094</ele>
        <time>2018-11-19T08:29:23Z</time>
      </trkpt>
      <trkpt lat="42.173025" lon="1.735486">
        <ele>1493.083</ele>
        <time>2018-11-19T08:29:28Z</time>
      </trkpt>
      <trkpt lat="42.172938" lon="1.734982">
        <ele>1499.025</ele>
        <time>2018-11-19T08:29:33Z</time>
      </trkpt>
      <trkpt lat="42.172930" lon="1.734627">
        <ele>1503.017</ele>
        <time>2018-11-19T08:29:38Z</time>
      </trkpt>
      <trkpt lat="42.172811" lon="1.734295">
        <ele>1505.008</ele>
        <time>2018-11-19T08:29:43Z</time>
      </trkpt>
      <trkpt lat="42.172540" lon="1.733458">
        <ele>1513.039</ele>
        <time>2018-11-19T08:29:48Z</time>
      </trkpt>
      <trkpt lat="42.172119" lon="1.733630">
        <ele>1508.022</ele>
        <time>2018-11-19T08:29:53Z</time>
      </trkpt>
      <trkpt lat="42.171785" lon="1.733823">
        <ele>1500.024</ele>
        <time>2018-11-19T08:29:58Z</time>
      </trkpt>
      <trkpt lat="42.171244" lon="1.733716">
        <ele>1508.069</ele>
        <time>2018-11-19T08:30:03Z</time>
      </trkpt>
      <trkpt lat="42.170703" lon="1.733973">
        <ele>1504.079</ele>
        <time>2018-11-19T08:30:08Z</time>
      </trkpt>
      <trkpt lat="42.170433" lon="1.734080">
        <ele>1501.030</ele>
        <time>2018-11-19T08:30:13Z</time>
      </trkpt>
      <trkpt lat="42.169765" lon="1.735089">
        <ele>1499.080</ele>
        <time>2018-11-19T08:30:18Z</time>
      </trkpt>
      <trkpt lat="42.169558" lon="1.735325">
        <ele>1495.071</ele>
        <time>2018-11-19T08:30:23Z</time>
      </trkpt>
      <trkpt lat="42.169129" lon="1.735132">
        <ele>1512.056</ele>
        <time>2018-11-19T08:30:28Z</time>
      </trkpt>
      <trkpt lat="42.168302" lon="1.735110">
        <ele>1512.059</ele>
        <time>2018-11-19T08:30:33Z</time>
      </trkpt>
      <trkpt lat="42.168127" lon="1.735046">
        <ele>1509.014</ele>
        <time>2018-11-19T08:30:38Z</time>
      </trkpt>
      <trkpt lat="42.167936" lon="1.734724">
        <ele>1521.008</ele>
        <time>2018-11-19T08:30:43Z</time>
      </trkpt>
      <trkpt lat="42.167857" lon="1.734359">
        <ele>1530.076</ele>
        <time>2018-11-19T08:30:48Z</time>
      </trkpt>
      <trkpt lat="42.167364" lon="1.734509">
        <ele>1530.049</ele>
        <time>2018-11-19T08:30:53Z</time>
      </trkpt>
      <trkpt lat="42.166807" lon="1.734831">
        <ele>1524.081</ele>
        <time>2018-11-19T08:30:58Z</time>
      </trkpt>
      <trkpt lat="42.166187" lon="1.735089">
        <ele>1528.026</ele>
        <time>2018-11-19T08:31:03Z</time>
      </trkpt>
      <trkpt lat="42.165105" lon="1.735926">
        <ele>1514.086</ele>
        <time>2018-11-19T08:31:08Z</time>
      </trkpt>
      <trkpt lat="42.164692" lon="1.736205">
        <ele>1506.057</ele>
        <time>2018-11-19T08:31:13Z</time>
      </trkpt>
      <trkpt lat="42.164358" lon="1.736205">
        <ele>1504.077</ele>
        <time>2018-11-19T08:31:18Z</time>
      </trkpt>
      <trkpt lat="42.164119" lon="1.735711">
        <ele>1506.038</ele>
        <time>2018-11-19T08:31:23Z</time>
      </trkpt>
      <trkpt lat="42.163578" lon="1.735561">
        <ele>1493.061</ele>
        <time>2018-11-19T08:31:28Z</time>
      </trkpt>
      <trkpt lat="42.163197" lon="1.735024">
        <ele>1487.021</ele>
        <time>2018-11-19T08:31:33Z</time>
      </trkpt>
      <trkpt lat="42.163149" lon="1.734509">
        <ele>1476.013</ele>
        <time>2018-11-19T08:31:38Z</time>
      </trkpt>
      <trkpt lat="42.163499" lon="1.733308">
        <ele>1477.008</ele>
        <time>2018-11-19T08:31:43Z</time>
      </trkpt>
      <trkpt lat="42.163737" lon="1.732557">
        <ele>1478.027</ele>
        <time>2018-11-19T08:31:48Z</time>
      </trkpt>
      <trkpt lat="42.164008" lon="1.732235">
        <ele>1484.050</ele>
        <time>2018-11-19T08:31:53Z</time>
      </trkpt>
      <trkpt lat="42.163896" lon="1.731913">
        <ele>1487.042</ele>
        <time>2018-11-19T08:31:58Z</time>
      </trkpt>
      <trkpt lat="42.163388" lon="1.732278">
        <ele>1484.037</ele>
        <time>2018-11-19T08:32:03Z</time>
      </trkpt>
      <trkpt lat="42.162592" lon="1.732965">
        <ele>1470.077</ele>
        <time>2018-11-19T08:32:08Z</time>
      </trkpt>
      <trkpt lat="42.162036" lon="1.733544">
        <ele>1456.048</ele>
        <time>2018-11-19T08:32:13Z</time>
      </trkpt>
      <trkpt lat="42.161352" lon="1.733394">
        <ele>1455.088</ele>
        <time>2018-11-19T08:32:18Z</time>
      </trkpt>
      <trkpt lat="42.160827" lon="1.733201">
        <ele>1436.039</ele>
        <time>2018-11-19T08:32:23Z</time>
      </trkpt>
      <trkpt lat="42.160302" lon="1.732771">
        <ele>1435.049</ele>
        <time>2018-11-19T08:32:28Z</time>
      </trkpt>
      <trkpt lat="42.160254" lon="1.731763">
        <ele>1437.002</ele>
        <time>2018-11-19T08:32:33Z</time>
      </trkpt>
      <trkpt lat="42.160159" lon="1.731141">
        <ele>1425.022</ele>
        <time>2018-11-19T08:32:38Z</time>
      </trkpt>
      <trkpt lat="42.160731" lon="1.729918">
        <ele>1421.008</ele>
        <time>2018-11-19T08:32:43Z</time>
      </trkpt>
      <trkpt lat="42.161527" lon="1.729038">
        <ele>1426.035</ele>
        <time>2018-11-19T08:32:48Z</time>
      </trkpt>
      <trkpt lat="42.161511" lon="1.728737">
        <ele>1429.068</ele>
        <time>2018-11-19T08:32:53Z</time>
      </trkpt>
      <trkpt lat="42.160652" lon="1.728737">
        <ele>1411.040</ele>
        <time>2018-11-19T08:32:58Z</time>
      </trkpt>
      <trkpt lat="42.159777" lon="1.729145">
        <ele>1391.085</ele>
        <time>2018-11-19T08:33:03Z</time>
      </trkpt>
      <trkpt lat="42.159347" lon="1.728930">
        <ele>1384.095</ele>
        <time>2018-11-19T08:33:08Z</time>
      </trkpt>
      <trkpt lat="42.159697" lon="1.728115">
        <ele>1391.046</ele>
        <time>2018-11-19T08:33:13Z</time>
      </trkpt>
      <trkpt lat="42.160016" lon="1.727321">
        <ele>1403.036</ele>
        <time>2018-11-19T08:33:18Z</time>
      </trkpt>
      <trkpt lat="42.159522" lon="1.727300">
        <ele>1403.097</ele>
        <time>2018-11-19T08:33:23Z</time>
      </trkpt>
      <trkpt lat="42.158870" lon="1.727772">
        <ele>1395.023</ele>
        <time>2018-11-19T08:33:28Z</time>
      </trkpt>
      <trkpt lat="42.157995" lon="1.728072">
        <ele>1394.083</ele>
        <time>2018-11-19T08:33:33Z</time>
      </trkpt>
      <trkpt lat="42.157455" lon="1.727879">
        <ele>1395.011</ele>
        <time>2018-11-19T08:33:38Z</time>
      </trkpt>
      <trkpt lat="42.157375" lon="1.727149">
        <ele>1409.008</ele>
        <time>2018-11-19T08:33:43Z</time>
      </trkpt>
      <trkpt lat="42.157296" lon="1.726334">
        <ele>1408.033</ele>
        <time>2018-11-19T08:33:48Z</time>
      </trkpt>
      <trkpt lat="42.157518" lon="1.725712">
        <ele>1423.016</ele>
        <time>2018-11-19T08:33:53Z</time>
      </trkpt>
      <trkpt lat="42.157184" lon="1.725368">
        <ele>1421.058</ele>
        <time>2018-11-19T08:33:58Z</time>
      </trkpt>
      <trkpt lat="42.156850" lon="1.724768">
        <ele>1420.073</ele>
        <time>2018-11-19T08:34:03Z</time>
      </trkpt>
      <trkpt lat="42.156993" lon="1.723781">
        <ele>1429.083</ele>
        <time>2018-11-19T08:34:08Z</time>
      </trkpt>
      <trkpt lat="42.156309" lon="1.722987">
        <ele>1441.064</ele>
        <time>2018-11-19T08:34:13Z</time>
      </trkpt>
      <trkpt lat="42.155721" lon="1.724231">
        <ele>1433.074</ele>
        <time>2018-11-19T08:34:18Z</time>
      </trkpt>
      <trkpt lat="42.154146" lon="1.724961">
        <ele>1456.045</ele>
        <time>2018-11-19T08:34:23Z</time>
      </trkpt>
      <trkpt lat="42.153494" lon="1.725068">
        <ele>1459.095</ele>
        <time>2018-11-19T08:34:28Z</time>
      </trkpt>
      <trkpt lat="42.153907" lon="1.724317">
        <ele>1471.049</ele>
        <time>2018-11-19T08:34:33Z</time>
      </trkpt>
      <trkpt lat="42.154385" lon="1.722901">
        <ele>1488.023</ele>
        <time>2018-11-19T08:34:38Z</time>
      </trkpt>
      <trkpt lat="42.154464" lon="1.722193">
        <ele>1494.008</ele>
        <time>2018-11-19T08:34:43Z</time>
      </trkpt>
      <trkpt lat="42.154925" lon="1.721227">
        <ele>1497.070</ele>
        <time>2018-11-19T08:34:48Z</time>
      </trkpt>
      <trkpt lat="42.154941" lon="1.720927">
        <ele>1496.063</ele>
        <time>2018-11-19T08:34:53Z</time>
      </trkpt>
      <trkpt lat="42.155212" lon="1.720476">
        <ele>1496.065</ele>
        <time>2018-11-19T08:34:58Z</time>
      </trkpt>
      <trkpt lat="42.155753" lon="1.719961">
        <ele>1494.020</ele>
        <time>2018-11-19T08:35:03Z</time>
      </trkpt>
      <trkpt lat="42.156993" lon="1.720004">
        <ele>1512.050</ele>
        <time>2018-11-19T08:35:08Z</time>
      </trkpt>
      <trkpt lat="42.158250" lon="1.720991">
        <ele>1534.061</ele>
        <time>2018-11-19T08:35:13Z</time>
      </trkpt>
      <trkpt lat="42.159204" lon="1.720283">
        <ele>1533.031</ele>
        <time>2018-11-19T08:35:18Z</time>
      </trkpt>
      <trkpt lat="42.160397" lon="1.720004">
        <ele>1534.052</ele>
        <time>2018-11-19T08:35:23Z</time>
      </trkpt>
      <trkpt lat="42.160795" lon="1.721141">
        <ele>1548.095</ele>
        <time>2018-11-19T08:35:28Z</time>
      </trkpt>
      <trkpt lat="42.161113" lon="1.721592">
        <ele>1554.049</ele>
        <time>2018-11-19T08:35:33Z</time>
      </trkpt>
      <trkpt lat="42.161622" lon="1.721163">
        <ele>1554.023</ele>
        <time>2018-11-19T08:35:38Z</time>
      </trkpt>
      <trkpt lat="42.161924" lon="1.720090">
        <ele>1548.008</ele>
        <time>2018-11-19T08:35:43Z</time>
      </trkpt>
      <trkpt lat="42.162449" lon="1.719253">
        <ele>1559.020</ele>
        <time>2018-11-19T08:35:48Z</time>
      </trkpt>
      <trkpt lat="42.162719" lon="1.717644">
        <ele>1564.023</ele>
        <time>2018-11-19T08:35:53Z</time>
      </trkpt>
      <trkpt lat="42.162513" lon="1.717021">
        <ele>1568.075</ele>
        <time>2018-11-19T08:35:58Z</time>
      </trkpt>
      <trkpt lat="42.162385" lon="1.716743">
        <ele>1570.080</ele>
        <time>2018-11-19T08:36:03Z</time>
      </trkpt>
      <trkpt lat="42.162020" lon="1.716635">
        <ele>1567.030</ele>
        <time>2018-11-19T08:36:08Z</time>
      </trkpt>
      <trkpt lat="42.161813" lon="1.716378">
        <ele>1570.031</ele>
        <time>2018-11-19T08:36:13Z</time>
      </trkpt>
      <trkpt lat="42.162226" lon="1.716367">
        <ele>1570.051</ele>
        <time>2018-11-19T08:36:18Z</time>
      </trkpt>
      <trkpt lat="42.162624" lon="1.716110">
        <ele>1573.012</ele>
        <time>2018-11-19T08:36:23Z</time>
      </trkpt>
      <trkpt lat="42.162847" lon="1.715541">
        <ele>1578.069</ele>
        <time>2018-11-19T08:36:28Z</time>
      </trkpt>
      <trkpt lat="42.162958" lon="1.715133">
        <ele>1578.004</ele>
        <time>2018-11-19T08:36:33Z</time>
      </trkpt>
      <trkpt lat="42.162831" lon="1.714479">
        <ele>1577.024</ele>
        <time>2018-11-19T08:36:38Z</time>
      </trkpt>
      <trkpt lat="42.162743" lon="1.713899">
        <ele>1573.008</ele>
        <time>2018-11-19T08:36:43Z</time>
      </trkpt>
      <trkpt lat="42.162624" lon="1.712902">
        <ele>1570.047</ele>
        <time>2018-11-19T08:36:48Z</time>
      </trkpt>
      <trkpt lat="42.162783" lon="1.712419">
        <ele>1560.010</ele>
        <time>2018-11-19T08:36:53Z</time>
      </trkpt>
      <trkpt lat="42.162664" lon="1.711614">
        <ele>1559.012</ele>
        <time>2018-11-19T08:36:58Z</time>
      </trkpt>
      <trkpt lat="42.163014" lon="1.710788">
        <ele>1561.097</ele>
        <time>2018-11-19T08:37:03Z</time>
      </trkpt>
      <trkpt lat="42.164024" lon="1.709608">
        <ele>1553.057</ele>
        <time>2018-11-19T08:37:08Z</time>
      </trkpt>
      <trkpt lat="42.164167" lon="1.708996">
        <ele>1549.078</ele>
        <time>2018-11-19T08:37:13Z</time>
      </trkpt>
      <trkpt lat="42.164493" lon="1.708363">
        <ele>1536.088</ele>
        <time>2018-11-19T08:37:18Z</time>
      </trkpt>
      <trkpt lat="42.164509" lon="1.707913">
        <ele>1528.099</ele>
        <time>2018-11-19T08:37:23Z</time>
      </trkpt>
      <trkpt lat="42.164596" lon="1.707494">
        <ele>1511.095</ele>
        <time>2018-11-19T08:37:28Z</time>
      </trkpt>
      <trkpt lat="42.164119" lon="1.706690">
        <ele>1515.049</ele>
        <time>2018-11-19T08:37:33Z</time>
      </trkpt>
      <trkpt lat="42.163753" lon="1.706175">
        <ele>1513.023</ele>
        <time>2018-11-19T08:37:38Z</time>
      </trkpt>
      <trkpt lat="42.163674" lon="1.705778">
        <ele>1517.008</ele>
        <time>2018-11-19T08:37:43Z</time>
      </trkpt>
      <trkpt lat="42.163706" lon="1.705381">
        <ele>1508.080</ele>
        <time>2018-11-19T08:37:48Z</time>
      </trkpt>
      <trkpt lat="42.163547" lon="1.705037">
        <ele>1502.023</ele>
        <time>2018-11-19T08:37:53Z</time>
      </trkpt>
      <trkpt lat="42.163069" lon="1.704512">
        <ele>1506.065</ele>
        <time>2018-11-19T08:37:58Z</time>
      </trkpt>
      <trkpt lat="42.162600" lon="1.704179">
        <ele>1513.050</ele>
        <time>2018-11-19T08:38:03Z</time>
      </trkpt>
      <trkpt lat="42.162378" lon="1.703911">
        <ele>1505.090</ele>
        <time>2018-11-19T08:38:08Z</time>
      </trkpt>
      <trkpt lat="42.162123" lon="1.703568">
        <ele>1507.081</ele>
        <time>2018-11-19T08:38:13Z</time>
      </trkpt>
      <trkpt lat="42.161717" lon="1.703181">
        <ele>1522.031</ele>
        <time>2018-11-19T08:38:18Z</time>
      </trkpt>
      <trkpt lat="42.161654" lon="1.702935">
        <ele>1522.012</ele>
        <time>2018-11-19T08:38:23Z</time>
      </trkpt>
      <trkpt lat="42.162147" lon="1.701593">
        <ele>1506.019</ele>
        <time>2018-11-19T08:38:28Z</time>
      </trkpt>
      <trkpt lat="42.162640" lon="1.701239">
        <ele>1477.009</ele>
        <time>2018-11-19T08:38:33Z</time>
      </trkpt>
      <trkpt lat="42.162640" lon="1.700349">
        <ele>1477.019</ele>
        <time>2018-11-19T08:38:38Z</time>
      </trkpt>
      <trkpt lat="42.162656" lon="1.699544">
        <ele>1457.008</ele>
        <time>2018-11-19T08:38:43Z</time>
      </trkpt>
      <trkpt lat="42.162600" lon="1.699330">
        <ele>1465.032</ele>
        <time>2018-11-19T08:38:48Z</time>
      </trkpt>
      <trkpt lat="42.162322" lon="1.699222">
        <ele>1462.045</ele>
        <time>2018-11-19T08:38:53Z</time>
      </trkpt>
      <trkpt lat="42.162179" lon="1.699136">
        <ele>1462.017</ele>
        <time>2018-11-19T08:38:58Z</time>
      </trkpt>
      <trkpt lat="42.162409" lon="1.699153">
        <ele>1456.032</ele>
        <time>2018-11-19T08:39:03Z</time>
      </trkpt>
      <trkpt lat="42.162656" lon="1.699238">
        <ele>1450.072</ele>
        <time>2018-11-19T08:39:08Z</time>
      </trkpt>
      <trkpt lat="42.162795" lon="1.699673">
        <ele>1465.073</ele>
        <time>2018-11-19T08:39:13Z</time>
      </trkpt>
      <trkpt lat="42.163181" lon="1.701314">
        <ele>1455.043</ele>
        <time>2018-11-19T08:39:18Z</time>
      </trkpt>
      <trkpt lat="42.162672" lon="1.702108">
        <ele>1460.064</ele>
        <time>2018-11-19T08:39:23Z</time>
      </trkpt>
      <trkpt lat="42.162592" lon="1.702559">
        <ele>1477.074</ele>
        <time>2018-11-19T08:39:28Z</time>
      </trkpt>
      <trkpt lat="42.164087" lon="1.703503">
        <ele>1428.056</ele>
        <time>2018-11-19T08:39:33Z</time>
      </trkpt>
      <trkpt lat="42.164930" lon="1.704469">
        <ele>1408.021</ele>
        <time>2018-11-19T08:39:38Z</time>
      </trkpt>
      <trkpt lat="42.165010" lon="1.705005">
        <ele>1424.008</ele>
        <time>2018-11-19T08:39:43Z</time>
      </trkpt>
      <trkpt lat="42.166060" lon="1.705434">
        <ele>1409.058</ele>
        <time>2018-11-19T08:39:48Z</time>
      </trkpt>
      <trkpt lat="42.166537" lon="1.706958">
        <ele>1423.021</ele>
        <time>2018-11-19T08:39:53Z</time>
      </trkpt>
      <trkpt lat="42.167443" lon="1.707044">
        <ele>1414.013</ele>
        <time>2018-11-19T08:39:58Z</time>
      </trkpt>
      <trkpt lat="42.168175" lon="1.707923">
        <ele>1444.058</ele>
        <time>2018-11-19T08:40:03Z</time>
      </trkpt>
      <trkpt lat="42.169606" lon="1.707687">
        <ele>1401.028</ele>
        <time>2018-11-19T08:40:08Z</time>
      </trkpt>
      <trkpt lat="42.169884" lon="1.708138">
        <ele>1402.089</ele>
        <time>2018-11-19T08:40:13Z</time>
      </trkpt>
      <trkpt lat="42.170242" lon="1.708449">
        <ele>1400.069</ele>
        <time>2018-11-19T08:40:18Z</time>
      </trkpt>
      <trkpt lat="42.170123" lon="1.708750">
        <ele>1404.030</ele>
        <time>2018-11-19T08:40:23Z</time>
      </trkpt>
      <trkpt lat="42.169654" lon="1.709286">
        <ele>1403.048</ele>
        <time>2018-11-19T08:40:28Z</time>
      </trkpt>
      <trkpt lat="42.169773" lon="1.709522">
        <ele>1401.061</ele>
        <time>2018-11-19T08:40:33Z</time>
      </trkpt>
      <trkpt lat="42.170147" lon="1.709490">
        <ele>1396.017</ele>
        <time>2018-11-19T08:40:38Z</time>
      </trkpt>
      <trkpt lat="42.170362" lon="1.709715">
        <ele>1396.008</ele>
        <time>2018-11-19T08:40:43Z</time>
      </trkpt>
      <trkpt lat="42.170441" lon="1.710058">
        <ele>1396.075</ele>
        <time>2018-11-19T08:40:48Z</time>
      </trkpt>
      <trkpt lat="42.170632" lon="1.710391">
        <ele>1397.088</ele>
        <time>2018-11-19T08:40:53Z</time>
      </trkpt>
      <trkpt lat="42.171077" lon="1.710262">
        <ele>1390.010</ele>
        <time>2018-11-19T08:40:58Z</time>
      </trkpt>
      <trkpt lat="42.171435" lon="1.710037">
        <ele>1385.025</ele>
        <time>2018-11-19T08:41:03Z</time>
      </trkpt>
      <trkpt lat="42.171666" lon="1.710219">
        <ele>1381.045</ele>
        <time>2018-11-19T08:41:08Z</time>
      </trkpt>
      <trkpt lat="42.171689" lon="1.710606">
        <ele>1381.026</ele>
        <time>2018-11-19T08:41:13Z</time>
      </trkpt>
      <trkpt lat="42.171745" lon="1.711013">
        <ele>1383.026</ele>
        <time>2018-11-19T08:41:18Z</time>
      </trkpt>
      <trkpt lat="42.171944" lon="1.711196">
        <ele>1379.087</ele>
        <time>2018-11-19T08:41:23Z</time>
      </trkpt>
      <trkpt lat="42.172294" lon="1.711217">
        <ele>1377.081</ele>
        <time>2018-11-19T08:41:28Z</time>
      </trkpt>
      <trkpt lat="42.172532" lon="1.711668">
        <ele>1378.061</ele>
        <time>2018-11-19T08:41:33Z</time>
      </trkpt>
      <trkpt lat="42.172644" lon="1.711979">
        <ele>1378.017</ele>
        <time>2018-11-19T08:41:38Z</time>
      </trkpt>
      <trkpt lat="42.172620" lon="1.712376">
        <ele>1382.008</ele>
        <time>2018-11-19T08:41:43Z</time>
      </trkpt>
      <trkpt lat="42.172739" lon="1.713105">
        <ele>1378.089</ele>
        <time>2018-11-19T08:41:48Z</time>
      </trkpt>
      <trkpt lat="42.172882" lon="1.713728">
        <ele>1375.042</ele>
        <time>2018-11-19T08:41:53Z</time>
      </trkpt>
      <trkpt lat="42.172699" lon="1.714168">
        <ele>1374.084</ele>
        <time>2018-11-19T08:41:58Z</time>
      </trkpt>
      <trkpt lat="42.172715" lon="1.714886">
        <ele>1381.029</ele>
        <time>2018-11-19T08:42:03Z</time>
      </trkpt>
      <trkpt lat="42.172954" lon="1.714586">
        <ele>1375.059</ele>
        <time>2018-11-19T08:42:08Z</time>
      </trkpt>
      <trkpt lat="42.173145" lon="1.714425">
        <ele>1372.080</ele>
        <time>2018-11-19T08:42:13Z</time>
      </trkpt>
      <trkpt lat="42.173606" lon="1.714307">
        <ele>1372.070</ele>
        <time>2018-11-19T08:42:18Z</time>
      </trkpt>
      <trkpt lat="42.173661" lon="1.714092">
        <ele>1368.011</ele>
        <time>2018-11-19T08:42:23Z</time>
      </trkpt>
      <trkpt lat="42.174091" lon="1.713932">
        <ele>1360.066</ele>
        <time>2018-11-19T08:42:28Z</time>
      </trkpt>
      <trkpt lat="42.174321" lon="1.713803">
        <ele>1358.029</ele>
        <time>2018-11-19T08:42:33Z</time>
      </trkpt>
      <trkpt lat="42.174409" lon="1.713449">
        <ele>1346.021</ele>
        <time>2018-11-19T08:42:38Z</time>
      </trkpt>
      <trkpt lat="42.174655" lon="1.713213">
        <ele>1348.008</ele>
        <time>2018-11-19T08:42:43Z</time>
      </trkpt>
      <trkpt lat="42.174910" lon="1.713041">
        <ele>1346.037</ele>
        <time>2018-11-19T08:42:48Z</time>
      </trkpt>
      <trkpt lat="42.174830" lon="1.712548">
        <ele>1330.060</ele>
        <time>2018-11-19T08:42:53Z</time>
      </trkpt>
      <trkpt lat="42.175029" lon="1.712172">
        <ele>1327.052</ele>
        <time>2018-11-19T08:42:58Z</time>
      </trkpt>
      <trkpt lat="42.175506" lon="1.711668">
        <ele>1315.037</ele>
        <time>2018-11-19T08:43:03Z</time>
      </trkpt>
      <trkpt lat="42.175999" lon="1.710852">
        <ele>1276.037</ele>
        <time>2018-11-19T08:43:08Z</time>
      </trkpt>
      <trkpt lat="42.176961" lon="1.710434">
        <ele>1285.028</ele>
        <time>2018-11-19T08:43:13Z</time>
      </trkpt>
      <trkpt lat="42.177669" lon="1.710606">
        <ele>1302.078</ele>
        <time>2018-11-19T08:43:18Z</time>
      </trkpt>
      <trkpt lat="42.177899" lon="1.710767">
        <ele>1310.019</ele>
        <time>2018-11-19T08:43:23Z</time>
      </trkpt>
      <trkpt lat="42.178186" lon="1.710724">
        <ele>1312.062</ele>
        <time>2018-11-19T08:43:28Z</time>
      </trkpt>
      <trkpt lat="42.178186" lon="1.710584">
        <ele>1307.083</ele>
        <time>2018-11-19T08:43:33Z</time>
      </trkpt>
      <trkpt lat="42.178058" lon="1.710069">
        <ele>1308.011</ele>
        <time>2018-11-19T08:43:38Z</time>
      </trkpt>
      <trkpt lat="42.177939" lon="1.709265">
        <ele>1328.008</ele>
        <time>2018-11-19T08:43:43Z</time>
      </trkpt>
      <trkpt lat="42.177080" lon="1.708020">
        <ele>1313.077</ele>
        <time>2018-11-19T08:43:48Z</time>
      </trkpt>
      <trkpt lat="42.176420" lon="1.707505">
        <ele>1296.020</ele>
        <time>2018-11-19T08:43:53Z</time>
      </trkpt>
      <trkpt lat="42.177287" lon="1.704834">
        <ele>1308.032</ele>
        <time>2018-11-19T08:43:58Z</time>
      </trkpt>
      <trkpt lat="42.177486" lon="1.704007">
        <ele>1305.077</ele>
        <time>2018-11-19T08:44:03Z</time>
      </trkpt>
      <trkpt lat="42.178313" lon="1.703718">
        <ele>1295.087</ele>
        <time>2018-11-19T08:44:08Z</time>
      </trkpt>
      <trkpt lat="42.179076" lon="1.703589">
        <ele>1306.058</ele>
        <time>2018-11-19T08:44:13Z</time>
      </trkpt>
      <trkpt lat="42.179617" lon="1.703074">
        <ele>1307.018</ele>
        <time>2018-11-19T08:44:18Z</time>
      </trkpt>
      <trkpt lat="42.179712" lon="1.702720">
        <ele>1298.059</ele>
        <time>2018-11-19T08:44:23Z</time>
      </trkpt>
      <trkpt lat="42.179648" lon="1.702248">
        <ele>1282.014</ele>
        <time>2018-11-19T08:44:28Z</time>
      </trkpt>
      <trkpt lat="42.179760" lon="1.702065">
        <ele>1274.054</ele>
        <time>2018-11-19T08:44:33Z</time>
      </trkpt>
      <trkpt lat="42.180324" lon="1.702248">
        <ele>1291.009</ele>
        <time>2018-11-19T08:44:38Z</time>
      </trkpt>
      <trkpt lat="42.181087" lon="1.701872">
        <ele>1288.008</ele>
        <time>2018-11-19T08:44:43Z</time>
      </trkpt>
      <trkpt lat="42.181628" lon="1.700971">
        <ele>1277.042</ele>
        <time>2018-11-19T08:44:48Z</time>
      </trkpt>
      <trkpt lat="42.181803" lon="1.699920">
        <ele>1257.065</ele>
        <time>2018-11-19T08:44:53Z</time>
      </trkpt>
      <trkpt lat="42.182296" lon="1.699383">
        <ele>1266.097</ele>
        <time>2018-11-19T08:44:58Z</time>
      </trkpt>
      <trkpt lat="42.182932" lon="1.698568">
        <ele>1245.052</ele>
        <time>2018-11-19T08:45:03Z</time>
      </trkpt>
      <trkpt lat="42.183584" lon="1.697581">
        <ele>1235.082</ele>
        <time>2018-11-19T08:45:08Z</time>
      </trkpt>
      <trkpt lat="42.184045" lon="1.698182">
        <ele>1237.033</ele>
        <time>2018-11-19T08:45:13Z</time>
      </trkpt>
      <trkpt lat="42.184283" lon="1.697946">
        <ele>1237.053</ele>
        <time>2018-11-19T08:45:18Z</time>
      </trkpt>
      <trkpt lat="42.184458" lon="1.697624">
        <ele>1226.024</ele>
        <time>2018-11-19T08:45:23Z</time>
      </trkpt>
      <trkpt lat="42.185444" lon="1.697152">
        <ele>1215.065</ele>
        <time>2018-11-19T08:45:28Z</time>
      </trkpt>
      <trkpt lat="42.185778" lon="1.696583">
        <ele>1204.068</ele>
        <time>2018-11-19T08:45:33Z</time>
      </trkpt>
      <trkpt lat="42.185842" lon="1.695671">
        <ele>1178.014</ele>
        <time>2018-11-19T08:45:38Z</time>
      </trkpt>
      <trkpt lat="42.186454" lon="1.695317">
        <ele>1178.008</ele>
        <time>2018-11-19T08:45:43Z</time>
      </trkpt>
      <trkpt lat="42.186589" lon="1.694791">
        <ele>1161.087</ele>
        <time>2018-11-19T08:45:48Z</time>
      </trkpt>
      <trkpt lat="42.187106" lon="1.694180">
        <ele>1142.040</ele>
        <time>2018-11-19T08:45:53Z</time>
      </trkpt>
      <trkpt lat="42.187376" lon="1.694598">
        <ele>1157.022</ele>
        <time>2018-11-19T08:45:58Z</time>
      </trkpt>
      <trkpt lat="42.187710" lon="1.694877">
        <ele>1155.027</ele>
        <time>2018-11-19T08:46:03Z</time>
      </trkpt>
      <trkpt lat="42.187988" lon="1.695220">
        <ele>1150.017</ele>
        <time>2018-11-19T08:46:08Z</time>
      </trkpt>
      <trkpt lat="42.188385" lon="1.695682">
        <ele>1145.068</ele>
        <time>2018-11-19T08:46:13Z</time>
      </trkpt>
      <trkpt lat="42.188847" lon="1.696218">
        <ele>1154.048</ele>
        <time>2018-11-19T08:46:18Z</time>
      </trkpt>
      <trkpt lat="42.188950" lon="1.695660">
        <ele>1135.099</ele>
        <time>2018-11-19T08:46:23Z</time>
      </trkpt>
      <trkpt lat="42.189109" lon="1.694759">
        <ele>1121.076</ele>
        <time>2018-11-19T08:46:28Z</time>
      </trkpt>
      <trkpt lat="42.189101" lon="1.694115">
        <ele>1113.090</ele>
        <time>2018-11-19T08:46:33Z</time>
      </trkpt>
      <trkpt lat="42.189705" lon="1.693686">
        <ele>1112.019</ele>
        <time>2018-11-19T08:46:38Z</time>
      </trkpt>
      <trkpt lat="42.190413" lon="1.693890">
        <ele>1122.008</ele>
        <time>2018-11-19T08:46:43Z</time>
      </trkpt>
      <trkpt lat="42.190913" lon="1.693847">
        <ele>1116.098</ele>
        <time>2018-11-19T08:46:48Z</time>
      </trkpt>
      <trkpt lat="42.190810" lon="1.693279">
        <ele>1108.081</ele>
        <time>2018-11-19T08:46:53Z</time>
      </trkpt>
      <trkpt lat="42.191279" lon="1.692742">
        <ele>1120.043</ele>
        <time>2018-11-19T08:46:58Z</time>
      </trkpt>
      <trkpt lat="42.191621" lon="1.692774">
        <ele>1127.088</ele>
        <time>2018-11-19T08:47:03Z</time>
      </trkpt>
      <trkpt lat="42.192225" lon="1.693203">
        <ele>1130.028</ele>
        <time>2018-11-19T08:47:08Z</time>
      </trkpt>
      <trkpt lat="42.192567" lon="1.693686">
        <ele>1135.019</ele>
        <time>2018-11-19T08:47:13Z</time>
      </trkpt>
      <trkpt lat="42.192877" lon="1.694405">
        <ele>1128.079</ele>
        <time>2018-11-19T08:47:18Z</time>
      </trkpt>
      <trkpt lat="42.192901" lon="1.693815">
        <ele>1141.080</ele>
        <time>2018-11-19T08:47:23Z</time>
      </trkpt>
      <trkpt lat="42.192972" lon="1.693515">
        <ele>1161.048</ele>
        <time>2018-11-19T08:47:28Z</time>
      </trkpt>
      <trkpt lat="42.192646" lon="1.692045">
        <ele>1182.061</ele>
        <time>2018-11-19T08:47:33Z</time>
      </trkpt>
      <trkpt lat="42.192877" lon="1.691540">
        <ele>1186.017</ele>
        <time>2018-11-19T08:47:38Z</time>
      </trkpt>
      <trkpt lat="42.192805" lon="1.691294">
        <ele>1191.008</ele>
        <time>2018-11-19T08:47:43Z</time>
      </trkpt>
      <trkpt lat="42.192169" lon="1.691186">
        <ele>1174.025</ele>
        <time>2018-11-19T08:47:48Z</time>
      </trkpt>
      <trkpt lat="42.191454" lon="1.689534">
        <ele>1151.028</ele>
        <time>2018-11-19T08:47:53Z</time>
      </trkpt>
      <trkpt lat="42.191486" lon="1.689148">
        <ele>1150.080</ele>
        <time>2018-11-19T08:47:58Z</time>
      </trkpt>
      <trkpt lat="42.191867" lon="1.688719">
        <ele>1168.035</ele>
        <time>2018-11-19T08:48:03Z</time>
      </trkpt>
      <trkpt lat="42.192503" lon="1.687539">
        <ele>1168.015</ele>
        <time>2018-11-19T08:48:08Z</time>
      </trkpt>
      <trkpt lat="42.193616" lon="1.686981">
        <ele>1192.026</ele>
        <time>2018-11-19T08:48:13Z</time>
      </trkpt>
      <trkpt lat="42.195158" lon="1.686723">
        <ele>1225.096</ele>
        <time>2018-11-19T08:48:18Z</time>
      </trkpt>
      <trkpt lat="42.196557" lon="1.686208">
        <ele>1249.047</ele>
        <time>2018-11-19T08:48:23Z</time>
      </trkpt>
      <trkpt lat="42.197161" lon="1.685650">
        <ele>1255.067</ele>
        <time>2018-11-19T08:48:28Z</time>
      </trkpt>
      <trkpt lat="42.197113" lon="1.685178">
        <ele>1253.081</ele>
        <time>2018-11-19T08:48:33Z</time>
      </trkpt>
      <trkpt lat="42.197352" lon="1.684749">
        <ele>1250.019</ele>
        <time>2018-11-19T08:48:38Z</time>
      </trkpt>
      <trkpt lat="42.197256" lon="1.684374">
        <ele>1250.008</ele>
        <time>2018-11-19T08:48:43Z</time>
      </trkpt>
      <trkpt lat="42.197392" lon="1.683698">
        <ele>1262.047</ele>
        <time>2018-11-19T08:48:48Z</time>
      </trkpt>
      <trkpt lat="42.197590" lon="1.683269">
        <ele>1263.010</ele>
        <time>2018-11-19T08:48:53Z</time>
      </trkpt>
      <trkpt lat="42.197455" lon="1.682990">
        <ele>1263.062</ele>
        <time>2018-11-19T08:48:58Z</time>
      </trkpt>
      <trkpt lat="42.197566" lon="1.682582">
        <ele>1268.077</ele>
        <time>2018-11-19T08:49:03Z</time>
      </trkpt>
      <trkpt lat="42.197757" lon="1.683075">
        <ele>1273.097</ele>
        <time>2018-11-19T08:49:08Z</time>
      </trkpt>
      <trkpt lat="42.198170" lon="1.683784">
        <ele>1280.068</ele>
        <time>2018-11-19T08:49:13Z</time>
      </trkpt>
      <trkpt lat="42.198123" lon="1.684384">
        <ele>1279.018</ele>
        <time>2018-11-19T08:49:18Z</time>
      </trkpt>
      <trkpt lat="42.198353" lon="1.684803">
        <ele>1289.029</ele>
        <time>2018-11-19T08:49:23Z</time>
      </trkpt>
      <trkpt lat="42.198600" lon="1.684545">
        <ele>1301.056</ele>
        <time>2018-11-19T08:49:28Z</time>
      </trkpt>
      <trkpt lat="42.198854" lon="1.684009">
        <ele>1312.059</ele>
        <time>2018-11-19T08:49:33Z</time>
      </trkpt>
      <trkpt lat="42.198949" lon="1.683794">
        <ele>1312.014</ele>
        <time>2018-11-19T08:49:38Z</time>
      </trkpt>
      <trkpt lat="42.198719" lon="1.682968">
        <ele>1305.008</ele>
        <time>2018-11-19T08:49:43Z</time>
      </trkpt>
      <trkpt lat="42.198894" lon="1.682400">
        <ele>1315.026</ele>
        <time>2018-11-19T08:49:48Z</time>
      </trkpt>
      <trkpt lat="42.199220" lon="1.681595">
        <ele>1329.089</ele>
        <time>2018-11-19T08:49:53Z</time>
      </trkpt>
      <trkpt lat="42.198902" lon="1.680404">
        <ele>1337.091</ele>
        <time>2018-11-19T08:49:58Z</time>
      </trkpt>
      <trkpt lat="42.199029" lon="1.679181">
        <ele>1356.096</ele>
        <time>2018-11-19T08:50:03Z</time>
      </trkpt>
      <trkpt lat="42.199140" lon="1.678762">
        <ele>1356.016</ele>
        <time>2018-11-19T08:50:08Z</time>
      </trkpt>
      <trkpt lat="42.199410" lon="1.678398">
        <ele>1366.037</ele>
        <time>2018-11-19T08:50:13Z</time>
      </trkpt>
      <trkpt lat="42.199601" lon="1.677872">
        <ele>1374.037</ele>
        <time>2018-11-19T08:50:18Z</time>
      </trkpt>
      <trkpt lat="42.199625" lon="1.677432">
        <ele>1376.028</ele>
        <time>2018-11-19T08:50:23Z</time>
      </trkpt>
      <trkpt lat="42.199458" lon="1.677572">
        <ele>1372.075</ele>
        <time>2018-11-19T08:50:28Z</time>
      </trkpt>
      <trkpt lat="42.199164" lon="1.677518">
        <ele>1367.028</ele>
        <time>2018-11-19T08:50:33Z</time>
      </trkpt>
      <trkpt lat="42.198743" lon="1.677228">
        <ele>1364.020</ele>
        <time>2018-11-19T08:50:38Z</time>
      </trkpt>
      <trkpt lat="42.197940" lon="1.676552">
        <ele>1370.008</ele>
        <time>2018-11-19T08:50:43Z</time>
      </trkpt>
      <trkpt lat="42.197439" lon="1.676424">
        <ele>1370.058</ele>
        <time>2018-11-19T08:50:48Z</time>
      </trkpt>
      <trkpt lat="42.197145" lon="1.676059">
        <ele>1372.081</ele>
        <time>2018-11-19T08:50:53Z</time>
      </trkpt>
      <trkpt lat="42.196803" lon="1.675887">
        <ele>1372.013</ele>
        <time>2018-11-19T08:50:58Z</time>
      </trkpt>
      <trkpt lat="42.196152" lon="1.676027">
        <ele>1362.038</ele>
        <time>2018-11-19T08:51:03Z</time>
      </trkpt>
      <trkpt lat="42.195826" lon="1.676177">
        <ele>1357.068</ele>
        <time>2018-11-19T08:51:08Z</time>
      </trkpt>
      <trkpt lat="42.195468" lon="1.675565">
        <ele>1357.029</ele>
        <time>2018-11-19T08:51:13Z</time>
      </trkpt>
      <trkpt lat="42.195452" lon="1.675297">
        <ele>1358.029</ele>
        <time>2018-11-19T08:51:18Z</time>
      </trkpt>
      <trkpt lat="42.195770" lon="1.674567">
        <ele>1366.060</ele>
        <time>2018-11-19T08:51:23Z</time>
      </trkpt>
      <trkpt lat="42.195913" lon="1.674074">
        <ele>1365.025</ele>
        <time>2018-11-19T08:51:28Z</time>
      </trkpt>
      <trkpt lat="42.196287" lon="1.673709">
        <ele>1379.026</ele>
        <time>2018-11-19T08:51:33Z</time>
      </trkpt>
      <trkpt lat="42.196454" lon="1.673237">
        <ele>1377.008</ele>
        <time>2018-11-19T08:51:38Z</time>
      </trkpt>
      <trkpt lat="42.196748" lon="1.673023">
        <ele>1385.008</ele>
        <time>2018-11-19T08:51:43Z</time>
      </trkpt>
      <trkpt lat="42.196907" lon="1.672314">
        <ele>1393.013</ele>
        <time>2018-11-19T08:51:48Z</time>
      </trkpt>
      <trkpt lat="42.197018" lon="1.670737">
        <ele>1393.076</ele>
        <time>2018-11-19T08:51:53Z</time>
      </trkpt>
      <trkpt lat="42.197129" lon="1.670469">
        <ele>1402.048</ele>
        <time>2018-11-19T08:51:58Z</time>
      </trkpt>
      <trkpt lat="42.196954" lon="1.670115">
        <ele>1393.043</ele>
        <time>2018-11-19T08:52:03Z</time>
      </trkpt>
      <trkpt lat="42.196851" lon="1.669385">
        <ele>1396.033</ele>
        <time>2018-11-19T08:52:08Z</time>
      </trkpt>
      <trkpt lat="42.196414" lon="1.668441">
        <ele>1410.064</ele>
        <time>2018-11-19T08:52:13Z</time>
      </trkpt>
      <trkpt lat="42.195850" lon="1.667873">
        <ele>1422.084</ele>
        <time>2018-11-19T08:52:18Z</time>
      </trkpt>
      <trkpt lat="42.195540" lon="1.667883">
        <ele>1421.055</ele>
        <time>2018-11-19T08:52:23Z</time>
      </trkpt>
      <trkpt lat="42.195301" lon="1.667658">
        <ele>1422.044</ele>
        <time>2018-11-19T08:52:28Z</time>
      </trkpt>
      <trkpt lat="42.195261" lon="1.667186">
        <ele>1432.005</ele>
        <time>2018-11-19T08:52:33Z</time>
      </trkpt>
      <trkpt lat="42.194633" lon="1.666628">
        <ele>1438.015</ele>
        <time>2018-11-19T08:52:38Z</time>
      </trkpt>
      <trkpt lat="42.194991" lon="1.666456">
        <ele>1447.008</ele>
        <time>2018-11-19T08:52:43Z</time>
      </trkpt>
      <trkpt lat="42.195555" lon="1.666446">
        <ele>1462.085</ele>
        <time>2018-11-19T08:52:48Z</time>
      </trkpt>
      <trkpt lat="42.196056" lon="1.666435">
        <ele>1473.048</ele>
        <time>2018-11-19T08:52:53Z</time>
      </trkpt>
      <trkpt lat="42.196295" lon="1.666113">
        <ele>1488.060</ele>
        <time>2018-11-19T08:52:58Z</time>
      </trkpt>
      <trkpt lat="42.197002" lon="1.665931">
        <ele>1508.045</ele>
        <time>2018-11-19T08:53:03Z</time>
      </trkpt>
      <trkpt lat="42.197940" lon="1.665716">
        <ele>1511.075</ele>
        <time>2018-11-19T08:53:08Z</time>
      </trkpt>
      <trkpt lat="42.198465" lon="1.665190">
        <ele>1531.056</ele>
        <time>2018-11-19T08:53:13Z</time>
      </trkpt>
      <trkpt lat="42.199172" lon="1.664879">
        <ele>1499.046</ele>
        <time>2018-11-19T08:53:18Z</time>
      </trkpt>
      <trkpt lat="42.199490" lon="1.664633">
        <ele>1506.067</ele>
        <time>2018-11-19T08:53:23Z</time>
      </trkpt>
      <trkpt lat="42.200213" lon="1.664579">
        <ele>1537.094</ele>
        <time>2018-11-19T08:53:28Z</time>
      </trkpt>
      <trkpt lat="42.200881" lon="1.664321">
        <ele>1549.057</ele>
        <time>2018-11-19T08:53:33Z</time>
      </trkpt>
      <trkpt lat="42.201755" lon="1.664300">
        <ele>1566.022</ele>
        <time>2018-11-19T08:53:38Z</time>
      </trkpt>
      <trkpt lat="42.201795" lon="1.664718">
        <ele>1550.008</ele>
        <time>2018-11-19T08:53:43Z</time>
      </trkpt>
      <trkpt lat="42.202176" lon="1.664997">
        <ele>1557.060</ele>
        <time>2018-11-19T08:53:48Z</time>
      </trkpt>
      <trkpt lat="42.202192" lon="1.665545">
        <ele>1557.023</ele>
        <time>2018-11-19T08:53:53Z</time>
      </trkpt>
      <trkpt lat="42.202248" lon="1.665770">
        <ele>1560.035</ele>
        <time>2018-11-19T08:53:58Z</time>
      </trkpt>
      <trkpt lat="42.202415" lon="1.665255">
        <ele>1565.060</ele>
        <time>2018-11-19T08:54:03Z</time>
      </trkpt>
      <trkpt lat="42.202756" lon="1.664654">
        <ele>1570.090</ele>
        <time>2018-11-19T08:54:08Z</time>
      </trkpt>
      <trkpt lat="42.202931" lon="1.664193">
        <ele>1575.031</ele>
        <time>2018-11-19T08:54:13Z</time>
      </trkpt>
      <trkpt lat="42.203170" lon="1.664053">
        <ele>1575.051</ele>
        <time>2018-11-19T08:54:18Z</time>
      </trkpt>
      <trkpt lat="42.203662" lon="1.664064">
        <ele>1575.062</ele>
        <time>2018-11-19T08:54:23Z</time>
      </trkpt>
      <trkpt lat="42.204251" lon="1.664472">
        <ele>1574.077</ele>
        <time>2018-11-19T08:54:28Z</time>
      </trkpt>
      <trkpt lat="42.205212" lon="1.664515">
        <ele>1558.061</ele>
        <time>2018-11-19T08:54:33Z</time>
      </trkpt>
      <trkpt lat="42.205228" lon="1.664375">
        <ele>1558.027</ele>
        <time>2018-11-19T08:54:38Z</time>
      </trkpt>
      <trkpt lat="42.204799" lon="1.664128">
        <ele>1560.008</ele>
        <time>2018-11-19T08:54:43Z</time>
      </trkpt>
      <trkpt lat="42.204513" lon="1.663871">
        <ele>1559.088</ele>
        <time>2018-11-19T08:54:48Z</time>
      </trkpt>
      <trkpt lat="42.204553" lon="1.663420">
        <ele>1553.091</ele>
        <time>2018-11-19T08:54:53Z</time>
      </trkpt>
      <trkpt lat="42.204616" lon="1.662530">
        <ele>1543.033</ele>
        <time>2018-11-19T08:54:58Z</time>
      </trkpt>
      <trkpt lat="42.204966" lon="1.662047">
        <ele>1538.058</ele>
        <time>2018-11-19T08:55:03Z</time>
      </trkpt>
      <trkpt lat="42.205125" lon="1.661510">
        <ele>1545.038</ele>
        <time>2018-11-19T08:55:08Z</time>
      </trkpt>
      <trkpt lat="42.205514" lon="1.661081">
        <ele>1528.059</ele>
        <time>2018-11-19T08:55:13Z</time>
      </trkpt>
      <trkpt lat="42.205466" lon="1.660695">
        <ele>1530.089</ele>
        <time>2018-11-19T08:55:18Z</time>
      </trkpt>
      <trkpt lat="42.205172" lon="1.660191">
        <ele>1544.020</ele>
        <time>2018-11-19T08:55:23Z</time>
      </trkpt>
      <trkpt lat="42.205355" lon="1.659998">
        <ele>1547.085</ele>
        <time>2018-11-19T08:55:28Z</time>
      </trkpt>
      <trkpt lat="42.206396" lon="1.660223">
        <ele>1510.089</ele>
        <time>2018-11-19T08:55:33Z</time>
      </trkpt>
      <trkpt lat="42.207414" lon="1.660051">
        <ele>1495.017</ele>
        <time>2018-11-19T08:55:38Z</time>
      </trkpt>
      <trkpt lat="42.208351" lon="1.658764">
        <ele>1503.008</ele>
        <time>2018-11-19T08:55:43Z</time>
      </trkpt>
      <trkpt lat="42.209162" lon="1.658646">
        <ele>1489.079</ele>
        <time>2018-11-19T08:55:48Z</time>
      </trkpt>
      <trkpt lat="42.209861" lon="1.658807">
        <ele>1483.022</ele>
        <time>2018-11-19T08:55:53Z</time>
      </trkpt>
      <trkpt lat="42.211339" lon="1.658367">
        <ele>1493.014</ele>
        <time>2018-11-19T08:55:58Z</time>
      </trkpt>
      <trkpt lat="42.211927" lon="1.657916">
        <ele>1499.099</ele>
        <time>2018-11-19T08:56:03Z</time>
      </trkpt>
      <trkpt lat="42.212627" lon="1.657884">
        <ele>1492.079</ele>
        <time>2018-11-19T08:56:08Z</time>
      </trkpt>
      <trkpt lat="42.213517" lon="1.656876">
        <ele>1482.070</ele>
        <time>2018-11-19T08:56:13Z</time>
      </trkpt>
      <trkpt lat="42.213866" lon="1.654708">
        <ele>1487.030</ele>
        <time>2018-11-19T08:56:18Z</time>
      </trkpt>
      <trkpt lat="42.213890" lon="1.654279">
        <ele>1487.091</ele>
        <time>2018-11-19T08:56:23Z</time>
      </trkpt>
      <trkpt lat="42.214494" lon="1.653399">
        <ele>1480.032</ele>
        <time>2018-11-19T08:56:28Z</time>
      </trkpt>
      <trkpt lat="42.214303" lon="1.652616">
        <ele>1489.092</ele>
        <time>2018-11-19T08:56:33Z</time>
      </trkpt>
      <trkpt lat="42.214486" lon="1.652037">
        <ele>1496.011</ele>
        <time>2018-11-19T08:56:38Z</time>
      </trkpt>
      <trkpt lat="42.215050" lon="1.651340">
        <ele>1496.008</ele>
        <time>2018-11-19T08:56:43Z</time>
      </trkpt>
      <trkpt lat="42.215567" lon="1.650900">
        <ele>1496.074</ele>
        <time>2018-11-19T08:56:48Z</time>
      </trkpt>
      <trkpt lat="42.216234" lon="1.651189">
        <ele>1480.047</ele>
        <time>2018-11-19T08:56:53Z</time>
      </trkpt>
      <trkpt lat="42.217076" lon="1.651103">
        <ele>1472.069</ele>
        <time>2018-11-19T08:56:58Z</time>
      </trkpt>
      <trkpt lat="42.217736" lon="1.650685">
        <ele>1467.034</ele>
        <time>2018-11-19T08:57:03Z</time>
      </trkpt>
      <trkpt lat="42.217847" lon="1.650031">
        <ele>1471.094</ele>
        <time>2018-11-19T08:57:08Z</time>
      </trkpt>
      <trkpt lat="42.218673" lon="1.649580">
        <ele>1467.015</ele>
        <time>2018-11-19T08:57:13Z</time>
      </trkpt>
      <trkpt lat="42.218824" lon="1.648926">
        <ele>1469.095</ele>
        <time>2018-11-19T08:57:18Z</time>
      </trkpt>
      <trkpt lat="42.219007" lon="1.648271">
        <ele>1473.096</ele>
        <time>2018-11-19T08:57:23Z</time>
      </trkpt>
      <trkpt lat="42.219412" lon="1.647906">
        <ele>1461.057</ele>
        <time>2018-11-19T08:57:28Z</time>
      </trkpt>
      <trkpt lat="42.219778" lon="1.646619">
        <ele>1454.000</ele>
        <time>2018-11-19T08:57:33Z</time>
      </trkpt>
      <trkpt lat="42.219992" lon="1.646361">
        <ele>1446.020</ele>
        <time>2018-11-19T08:57:38Z</time>
      </trkpt>
      <trkpt lat="42.220525" lon="1.646329">
        <ele>1439.008</ele>
        <time>2018-11-19T08:57:43Z</time>
      </trkpt>
      <trkpt lat="42.221621" lon="1.646565">
        <ele>1433.056</ele>
        <time>2018-11-19T08:57:48Z</time>
      </trkpt>
      <trkpt lat="42.222273" lon="1.646844">
        <ele>1434.069</ele>
        <time>2018-11-19T08:57:53Z</time>
      </trkpt>
      <trkpt lat="42.222479" lon="1.646640">
        <ele>1422.021</ele>
        <time>2018-11-19T08:57:58Z</time>
      </trkpt>
      <trkpt lat="42.222297" lon="1.646061">
        <ele>1415.076</ele>
        <time>2018-11-19T08:58:03Z</time>
      </trkpt>
      <trkpt lat="42.221669" lon="1.645857">
        <ele>1414.046</ele>
        <time>2018-11-19T08:58:08Z</time>
      </trkpt>
      <trkpt lat="42.221208" lon="1.645718">
        <ele>1420.047</ele>
        <time>2018-11-19T08:58:13Z</time>
      </trkpt>
      <trkpt lat="42.221081" lon="1.645267">
        <ele>1411.097</ele>
        <time>2018-11-19T08:58:18Z</time>
      </trkpt>
      <trkpt lat="42.220437" lon="1.644816">
        <ele>1413.068</ele>
        <time>2018-11-19T08:58:23Z</time>
      </trkpt>
      <trkpt lat="42.219985" lon="1.644162">
        <ele>1427.053</ele>
        <time>2018-11-19T08:58:28Z</time>
      </trkpt>
      <trkpt lat="42.220032" lon="1.643765">
        <ele>1431.004</ele>
        <time>2018-11-19T08:58:33Z</time>
      </trkpt>
      <trkpt lat="42.221089" lon="1.643636">
        <ele>1421.014</ele>
        <time>2018-11-19T08:58:38Z</time>
      </trkpt>
      <trkpt lat="42.221454" lon="1.644119">
        <ele>1409.008</ele>
        <time>2018-11-19T08:58:43Z</time>
      </trkpt>
      <trkpt lat="42.222050" lon="1.644216">
        <ele>1400.096</ele>
        <time>2018-11-19T08:58:48Z</time>
      </trkpt>
      <trkpt lat="42.222797" lon="1.644108">
        <ele>1391.019</ele>
        <time>2018-11-19T08:58:53Z</time>
      </trkpt>
      <trkpt lat="42.223012" lon="1.643894">
        <ele>1391.091</ele>
        <time>2018-11-19T08:58:58Z</time>
      </trkpt>
      <trkpt lat="42.223377" lon="1.643947">
        <ele>1392.076</ele>
        <time>2018-11-19T08:59:03Z</time>
      </trkpt>
      <trkpt lat="42.223687" lon="1.644548">
        <ele>1393.056</ele>
        <time>2018-11-19T08:59:08Z</time>
      </trkpt>
      <trkpt lat="42.224712" lon="1.646426">
        <ele>1382.097</ele>
        <time>2018-11-19T08:59:13Z</time>
      </trkpt>
      <trkpt lat="42.225411" lon="1.647713">
        <ele>1377.087</ele>
        <time>2018-11-19T08:59:18Z</time>
      </trkpt>
      <trkpt lat="42.225816" lon="1.649226">
        <ele>1382.068</ele>
        <time>2018-11-19T08:59:23Z</time>
      </trkpt>
      <trkpt lat="42.227087" lon="1.649022">
        <ele>1392.025</ele>
        <time>2018-11-19T08:59:28Z</time>
      </trkpt>
      <trkpt lat="42.227842" lon="1.650052">
        <ele>1393.026</ele>
        <time>2018-11-19T08:59:33Z</time>
      </trkpt>
      <trkpt lat="42.228716" lon="1.651790">
        <ele>1390.008</ele>
        <time>2018-11-19T08:59:38Z</time>
      </trkpt>
      <trkpt lat="42.229089" lon="1.652294">
        <ele>1397.008</ele>
        <time>2018-11-19T08:59:43Z</time>
      </trkpt>
      <trkpt lat="42.229455" lon="1.653775">
        <ele>1392.053</ele>
        <time>2018-11-19T08:59:48Z</time>
      </trkpt>
      <trkpt lat="42.229796" lon="1.654741">
        <ele>1384.016</ele>
        <time>2018-11-19T08:59:53Z</time>
      </trkpt>
      <trkpt lat="42.230154" lon="1.655148">
        <ele>1393.078</ele>
        <time>2018-11-19T08:59:58Z</time>
      </trkpt>
      <trkpt lat="42.230654" lon="1.656135">
        <ele>1390.043</ele>
        <time>2018-11-19T09:00:03Z</time>
      </trkpt>
      <trkpt lat="42.231004" lon="1.656618">
        <ele>1397.023</ele>
        <time>2018-11-19T09:00:08Z</time>
      </trkpt>
      <trkpt lat="42.231401" lon="1.657155">
        <ele>1388.034</ele>
        <time>2018-11-19T09:00:13Z</time>
      </trkpt>
      <trkpt lat="42.232466" lon="1.657863">
        <ele>1378.054</ele>
        <time>2018-11-19T09:00:18Z</time>
      </trkpt>
      <trkpt lat="42.233546" lon="1.657616">
        <ele>1394.045</ele>
        <time>2018-11-19T09:00:23Z</time>
      </trkpt>
      <trkpt lat="42.234595" lon="1.657283">
        <ele>1401.078</ele>
        <time>2018-11-19T09:00:28Z</time>
      </trkpt>
      <trkpt lat="42.234714" lon="1.657594">
        <ele>1397.033</ele>
        <time>2018-11-19T09:00:33Z</time>
      </trkpt>
      <trkpt lat="42.234102" lon="1.658067">
        <ele>1387.026</ele>
        <time>2018-11-19T09:00:38Z</time>
      </trkpt>
      <trkpt lat="42.232807" lon="1.659333">
        <ele>1383.008</ele>
        <time>2018-11-19T09:00:43Z</time>
      </trkpt>
      <trkpt lat="42.232418" lon="1.660212">
        <ele>1387.098</ele>
        <time>2018-11-19T09:00:48Z</time>
      </trkpt>
      <trkpt lat="42.232402" lon="1.661425">
        <ele>1393.051</ele>
        <time>2018-11-19T09:00:53Z</time>
      </trkpt>
      <trkpt lat="42.232601" lon="1.662079">
        <ele>1393.053</ele>
        <time>2018-11-19T09:00:58Z</time>
      </trkpt>
      <trkpt lat="42.232942" lon="1.662605">
        <ele>1400.038</ele>
        <time>2018-11-19T09:01:03Z</time>
      </trkpt>
      <trkpt lat="42.233594" lon="1.663013">
        <ele>1405.048</ele>
        <time>2018-11-19T09:01:08Z</time>
      </trkpt>
      <trkpt lat="42.233999" lon="1.663163">
        <ele>1408.039</ele>
        <time>2018-11-19T09:01:13Z</time>
      </trkpt>
      <trkpt lat="42.234372" lon="1.663066">
        <ele>1411.079</ele>
        <time>2018-11-19T09:01:18Z</time>
      </trkpt>
      <trkpt lat="42.234388" lon="1.663452">
        <ele>1409.030</ele>
        <time>2018-11-19T09:01:23Z</time>
      </trkpt>
      <trkpt lat="42.229089" lon="1.662194">
        <ele>1388.927</ele>
        <time>2018-04-30T11:19:36Z</time>
      </trkpt>
      <trkpt lat="42.229285" lon="1.661957">
        <ele>1389.961</ele>
        <time>2018-04-30T11:19:26Z</time>
      </trkpt>
      <trkpt lat="42.230648" lon="1.661232">
        <ele>1393.577</ele>
        <time>2018-04-30T11:18:32Z</time>
      </trkpt>
      <trkpt lat="42.231797" lon="1.661774">
        <ele>1391.187</ele>
        <time>2018-04-30T11:18:10Z</time>
      </trkpt>
      <trkpt lat="42.232019" lon="1.66203">
        <ele>1393.027</ele>
        <time>2018-04-30T11:18:04Z</time>
      </trkpt>
      <trkpt lat="42.232415" lon="1.6619">
        <ele>1397.412</ele>
        <time>2018-04-30T11:17:57Z</time>
      </trkpt>
      <trkpt lat="42.233391" lon="1.6629">
        <ele>1407.973</ele>
        <time>2018-04-30T11:17:35Z</time>
      </trkpt>
      <trkpt lat="42.233886" lon="1.663116">
        <ele>1411.055</ele>
        <time>2018-04-30T11:17:28Z</time>
      </trkpt>
      <trkpt lat="42.234626" lon="1.663029">
        <ele>1415.245</ele>
        <time>2018-04-30T11:17:17Z</time>
      </trkpt>
      <trkpt lat="42.234723" lon="1.663252">
        <ele>1415.035</ele>
        <time>2018-04-30T11:17:13Z</time>
      </trkpt>
      <trkpt lat="42.234415" lon="1.663594">
        <ele>1414.853</ele>
        <time>2018-04-30T11:17:06Z</time>
      </trkpt>
      <trkpt lat="42.232596" lon="1.667089">
        <ele>1431.108</ele>
        <time>2018-04-30T11:16:43Z</time>
      </trkpt>
      <trkpt lat="42.230376" lon="1.670544">
        <ele>1438.619</ele>
        <time>2018-04-30T11:16:22Z</time>
      </trkpt>
      <trkpt lat="42.228714" lon="1.674486">
        <ele>1438.209</ele>
        <time>2018-04-30T11:16:01Z</time>
      </trkpt>
      <trkpt lat="42.227492" lon="1.676162">
        <ele>1433.319</ele>
        <time>2018-04-30T11:15:49Z</time>
      </trkpt>
      <trkpt lat="42.227229" lon="1.677027">
        <ele>1429.922</ele>
        <time>2018-04-30T11:15:44Z</time>
      </trkpt>
      <trkpt lat="42.22694" lon="1.679304">
        <ele>1420.942</ele>
        <time>2018-04-30T11:15:32Z</time>
      </trkpt>
      <trkpt lat="42.226385" lon="1.679759">
        <ele>1416.657</ele>
        <time>2018-04-30T11:15:27Z</time>
      </trkpt>
      <trkpt lat="42.225601" lon="1.679522">
        <ele>1411.568</ele>
        <time>2018-04-30T11:15:20Z</time>
      </trkpt>
      <trkpt lat="42.225268" lon="1.679659">
        <ele>1409.43</ele>
        <time>2018-04-30T11:15:17Z</time>
      </trkpt>
      <trkpt lat="42.222774" lon="1.681668">
        <ele>1390.03</ele>
        <time>2018-04-30T11:14:57Z</time>
      </trkpt>
      <trkpt lat="42.22252" lon="1.682059">
        <ele>1389.88</ele>
        <time>2018-04-30T11:14:54Z</time>
      </trkpt>
      <trkpt lat="42.222496" lon="1.683531">
        <ele>1381.518</ele>
        <time>2018-04-30T11:14:45Z</time>
      </trkpt>
      <trkpt lat="42.221577" lon="1.685116">
        <ele>1381.008</ele>
        <time>2018-04-30T11:14:34Z</time>
      </trkpt>
      <trkpt lat="42.221206" lon="1.686123">
        <ele>1380.218</ele>
        <time>2018-04-30T11:14:28Z</time>
      </trkpt>
      <trkpt lat="42.220575" lon="1.686956">
        <ele>1373.044</ele>
        <time>2018-04-30T11:14:21Z</time>
      </trkpt>
      <trkpt lat="42.220288" lon="1.688685">
        <ele>1365.263</ele>
        <time>2018-04-30T11:14:11Z</time>
      </trkpt>
      <trkpt lat="42.219444" lon="1.689692">
        <ele>1357.767</ele>
        <time>2018-04-30T11:14:02Z</time>
      </trkpt>
      <trkpt lat="42.219752" lon="1.692101">
        <ele>1356.047</ele>
        <time>2018-04-30T11:13:47Z</time>
      </trkpt>
      <trkpt lat="42.219556" lon="1.692568">
        <ele>1356.662</ele>
        <time>2018-04-30T11:13:44Z</time>
      </trkpt>
      <trkpt lat="42.219004" lon="1.693059">
        <ele>1356.783</ele>
        <time>2018-04-30T11:13:39Z</time>
      </trkpt>
      <trkpt lat="42.218743" lon="1.693595">
        <ele>1354.295</ele>
        <time>2018-04-30T11:13:35Z</time>
      </trkpt>
      <trkpt lat="42.21862" lon="1.694457">
        <ele>1351.295</ele>
        <time>2018-04-30T11:13:30Z</time>
      </trkpt>
      <trkpt lat="42.218843" lon="1.695392">
        <ele>1347.725</ele>
        <time>2018-04-30T11:13:25Z</time>
      </trkpt>
      <trkpt lat="42.218793" lon="1.695938">
        <ele>1344.493</ele>
        <time>2018-04-30T11:13:22Z</time>
      </trkpt>
      <trkpt lat="42.21782" lon="1.69703">
        <ele>1331.908</ele>
        <time>2018-04-30T11:13:10Z</time>
      </trkpt>
      <trkpt lat="42.217953" lon="1.699103">
        <ele>1336.103</ele>
        <time>2018-04-30T11:12:59Z</time>
      </trkpt>
      <trkpt lat="42.21752" lon="1.700677">
        <ele>1342.921</ele>
        <time>2018-04-30T11:12:50Z</time>
      </trkpt>
      <trkpt lat="42.217233" lon="1.701032">
        <ele>1339.811</ele>
        <time>2018-04-30T11:12:47Z</time>
      </trkpt>
      <trkpt lat="42.216744" lon="1.701075">
        <ele>1341.468</ele>
        <time>2018-04-30T11:12:43Z</time>
      </trkpt>
      <trkpt lat="42.215484" lon="1.699853">
        <ele>1336.468</ele>
        <time>2018-04-30T11:12:31Z</time>
      </trkpt>
      <trkpt lat="42.215098" lon="1.699666">
        <ele>1337.533</ele>
        <time>2018-04-30T11:12:28Z</time>
      </trkpt>
      <trkpt lat="42.214583" lon="1.699824">
        <ele>1338.014</ele>
        <time>2018-04-30T11:12:24Z</time>
      </trkpt>
      <trkpt lat="42.21434" lon="1.700183">
        <ele>1338.816</ele>
        <time>2018-04-30T11:12:21Z</time>
      </trkpt>
      <trkpt lat="42.214029" lon="1.702071">
        <ele>1336.086</ele>
        <time>2018-04-30T11:12:10Z</time>
      </trkpt>
      <trkpt lat="42.214337" lon="1.703956">
        <ele>1326.026</ele>
        <time>2018-04-30T11:12:00Z</time>
      </trkpt>
      <trkpt lat="42.21441" lon="1.70653">
        <ele>1311.234</ele>
        <time>2018-04-30T11:11:48Z</time>
      </trkpt>
      <trkpt lat="42.214359" lon="1.707708">
        <ele>1305.108</ele>
        <time>2018-04-30T11:11:42Z</time>
      </trkpt>
      <trkpt lat="42.214105" lon="1.708973">
        <ele>1297.911</ele>
        <time>2018-04-30T11:11:35Z</time>
      </trkpt>
      <trkpt lat="42.214153" lon="1.710433">
        <ele>1299.683</ele>
        <time>2018-04-30T11:11:28Z</time>
      </trkpt>
      <trkpt lat="42.214792" lon="1.71317">
        <ele>1308.323</ele>
        <time>2018-04-30T11:11:13Z</time>
      </trkpt>
      <trkpt lat="42.21631" lon="1.717682">
        <ele>1318.013</ele>
        <time>2018-04-30T11:10:42Z</time>
      </trkpt>
      <trkpt lat="42.215355" lon="1.718246">
        <ele>1314.213</ele>
        <time>2018-04-30T11:10:18Z</time>
      </trkpt>
      <trkpt lat="42.214899" lon="1.718905">
        <ele>1310.958</ele>
        <time>2018-04-30T11:10:01Z</time>
      </trkpt>
      <trkpt lat="42.214785" lon="1.719947">
        <ele>1301.299</ele>
        <time>2018-04-30T11:09:38Z</time>
      </trkpt>
      <trkpt lat="42.214378" lon="1.720141">
        <ele>1302.621</ele>
        <time>2018-04-30T11:09:27Z</time>
      </trkpt>
      <trkpt lat="42.214011" lon="1.720648">
        <ele>1296.131</ele>
        <time>2018-04-30T11:09:13Z</time>
      </trkpt>
      <trkpt lat="42.213491" lon="1.721001">
        <ele>1291.551</ele>
        <time>2018-04-30T11:08:53Z</time>
      </trkpt>
      <trkpt lat="42.212964" lon="1.721957">
        <ele>1286.519</ele>
        <time>2018-04-30T11:06:58Z</time>
      </trkpt>
      <trkpt lat="42.21307" lon="1.722128">
        <ele>1287.508</ele>
        <time>2018-04-30T11:06:48Z</time>
      </trkpt>
      <trkpt lat="42.213562" lon="1.72219">
        <ele>1283.027</ele>
        <time>2018-04-30T11:06:35Z</time>
      </trkpt>
      <trkpt lat="42.214083" lon="1.721764">
        <ele>1276.261</ele>
        <time>2018-04-30T11:06:15Z</time>
      </trkpt>
      <trkpt lat="42.214665" lon="1.722131">
        <ele>1275.377</ele>
        <time>2018-04-30T11:05:57Z</time>
      </trkpt>
      <trkpt lat="42.215944" lon="1.722393">
        <ele>1264.471</ele>
        <time>2018-04-30T11:05:02Z</time>
      </trkpt>
      <trkpt lat="42.216003" lon="1.722759">
        <ele>1268.541</ele>
        <time>2018-04-30T11:04:55Z</time>
      </trkpt>
      <trkpt lat="42.215467" lon="1.723755">
        <ele>1273.996</ele>
        <time>2018-04-30T11:04:30Z</time>
      </trkpt>
      <trkpt lat="42.216114" lon="1.725431">
        <ele>1284.737</ele>
        <time>2018-04-30T11:03:59Z</time>
      </trkpt>
      <trkpt lat="42.218187" lon="1.727856">
        <ele>1268.759</ele>
        <time>2018-04-30T11:03:09Z</time>
      </trkpt>
      <trkpt lat="42.218283" lon="1.729415">
        <ele>1267.439</ele>
        <time>2018-04-30T11:02:47Z</time>
      </trkpt>
      <trkpt lat="42.218886" lon="1.729611">
        <ele>1263.699</ele>
        <time>2018-04-30T11:02:33Z</time>
      </trkpt>
      <trkpt lat="42.218936" lon="1.730237">
        <ele>1262.177</ele>
        <time>2018-04-30T11:02:22Z</time>
      </trkpt>
      <trkpt lat="42.219523" lon="1.73063">
        <ele>1256.808</ele>
        <time>2018-04-30T11:02:08Z</time>
      </trkpt>
      <trkpt lat="42.21993" lon="1.731205">
        <ele>1251.217</ele>
        <time>2018-04-30T11:01:54Z</time>
      </trkpt>
      <trkpt lat="42.219944" lon="1.731749">
        <ele>1254.107</ele>
        <time>2018-04-30T11:01:45Z</time>
      </trkpt>
      <trkpt lat="42.220208" lon="1.731871">
        <ele>1249.255</ele>
        <time>2018-04-30T11:01:36Z</time>
      </trkpt>
      <trkpt lat="42.220293" lon="1.732327">
        <ele>1250.051</ele>
        <time>2018-04-30T11:01:26Z</time>
      </trkpt>
      <trkpt lat="42.220723" lon="1.732651">
        <ele>1249.151</ele>
        <time>2018-04-30T11:01:15Z</time>
      </trkpt>
      <trkpt lat="42.221248" lon="1.734564">
        <ele>1249.236</ele>
        <time>2018-04-30T11:00:47Z</time>
      </trkpt>
      <trkpt lat="42.221049" lon="1.736044">
        <ele>1255.347</ele>
        <time>2018-04-30T11:00:26Z</time>
      </trkpt>
      <trkpt lat="42.220845" lon="1.736517">
        <ele>1256.369</ele>
        <time>2018-04-30T11:00:18Z</time>
      </trkpt>
      <trkpt lat="42.220908" lon="1.737242">
        <ele>1252.789</ele>
        <time>2018-04-30T11:00:07Z</time>
      </trkpt>
      <trkpt lat="42.220317" lon="1.739203">
        <ele>1248.479</ele>
        <time>2018-04-30T10:59:39Z</time>
      </trkpt>
      <trkpt lat="42.219996" lon="1.739618">
        <ele>1246.317</ele>
        <time>2018-04-30T10:59:28Z</time>
      </trkpt>
      <trkpt lat="42.219999" lon="1.740545">
        <ele>1244.108</ele>
        <time>2018-04-30T10:59:11Z</time>
      </trkpt>
      <trkpt lat="42.219105" lon="1.742209">
        <ele>1251.008</ele>
        <time>2018-04-30T10:58:36Z</time>
      </trkpt>
      <trkpt lat="42.218728" lon="1.743537">
        <ele>1252.053</ele>
        <time>2018-04-30T10:46:27Z</time>
      </trkpt>
      <trkpt lat="42.218786" lon="1.743813">
        <ele>1252.752</ele>
        <time>2018-04-30T10:46:06Z</time>
      </trkpt>
      <trkpt lat="42.219123" lon="1.743949">
        <ele>1251.174</ele>
        <time>2018-04-30T10:45:57Z</time>
      </trkpt>
      <trkpt lat="42.219041" lon="1.74506">
        <ele>1250.694</ele>
        <time>2018-04-30T10:45:47Z</time>
      </trkpt>
      <trkpt lat="42.219838" lon="1.747036">
        <ele>1250.819</ele>
        <time>2018-04-30T10:45:27Z</time>
      </trkpt>
      <trkpt lat="42.220232" lon="1.747357">
        <ele>1247.08</ele>
        <time>2018-04-30T10:45:20Z</time>
      </trkpt>
      <trkpt lat="42.220307" lon="1.747694">
        <ele>1247.562</ele>
        <time>2018-04-30T10:45:16Z</time>
      </trkpt>
      <trkpt lat="42.220142" lon="1.748347">
        <ele>1247.542</ele>
        <time>2018-04-30T10:45:08Z</time>
      </trkpt>
      <trkpt lat="42.220702" lon="1.748883">
        <ele>1245.882</ele>
        <time>2018-04-30T10:44:58Z</time>
      </trkpt>
      <trkpt lat="42.220921" lon="1.749818">
        <ele>1249.19</ele>
        <time>2018-04-30T10:44:48Z</time>
      </trkpt>
      <trkpt lat="42.221282" lon="1.750004">
        <ele>1247.808</ele>
        <time>2018-04-30T10:44:40Z</time>
      </trkpt>
      <trkpt lat="42.221864" lon="1.750836">
        <ele>1247.226</ele>
        <time>2018-04-30T10:44:29Z</time>
      </trkpt>
      <trkpt lat="42.222001" lon="1.751591">
        <ele>1249.006</ele>
        <time>2018-04-30T10:44:21Z</time>
      </trkpt>
      <trkpt lat="42.222547" lon="1.75213">
        <ele>1250.489</ele>
        <time>2018-04-30T10:44:13Z</time>
      </trkpt>
      <trkpt lat="42.223273" lon="1.75248">
        <ele>1247.293</ele>
        <time>2018-04-30T10:44:05Z</time>
      </trkpt>
      <trkpt lat="42.223523" lon="1.752757">
        <ele>1246.623</ele>
        <time>2018-04-30T10:44:01Z</time>
      </trkpt>
      <trkpt lat="42.223612" lon="1.753235">
        <ele>1245.398</ele>
        <time>2018-04-30T10:43:56Z</time>
      </trkpt>
      <trkpt lat="42.223308" lon="1.753717">
        <ele>1243.869</ele>
        <time>2018-04-30T10:43:49Z</time>
      </trkpt>
      <trkpt lat="42.223217" lon="1.754363">
        <ele>1245.061</ele>
        <time>2018-04-30T10:43:43Z</time>
      </trkpt>
      <trkpt lat="42.223451" lon="1.754797">
        <ele>1245.811</ele>
        <time>2018-04-30T10:43:37Z</time>
      </trkpt>
      <trkpt lat="42.223522" lon="1.756023">
        <ele>1246.561</ele>
        <time>2018-04-30T10:43:27Z</time>
      </trkpt>
      <trkpt lat="42.224152" lon="1.756645">
        <ele>1240.879</ele>
        <time>2018-04-30T10:43:18Z</time>
      </trkpt>
      <trkpt lat="42.224447" lon="1.759169">
        <ele>1245.008</ele>
        <time>2018-04-30T10:42:53Z</time>
      </trkpt>
      <trkpt lat="42.22561" lon="1.759914">
        <ele>1243.325</ele>
        <time>2018-04-30T10:42:38Z</time>
      </trkpt>
      <trkpt lat="42.225692" lon="1.760465">
        <ele>1242.905</ele>
        <time>2018-04-30T10:42:33Z</time>
      </trkpt>
      <trkpt lat="42.226325" lon="1.762126">
        <ele>1242.979</ele>
        <time>2018-04-30T10:42:16Z</time>
      </trkpt>
      <trkpt lat="42.22699" lon="1.762637">
        <ele>1243.993</ele>
        <time>2018-04-30T10:42:06Z</time>
      </trkpt>
      <trkpt lat="42.227548" lon="1.762463">
        <ele>1241.343</ele>
        <time>2018-04-30T10:41:57Z</time>
      </trkpt>
      <trkpt lat="42.228003" lon="1.763121">
        <ele>1242.468</ele>
        <time>2018-04-30T10:40:12Z</time>
      </trkpt>
      <trkpt lat="42.227724" lon="1.762138">
        <ele>1232.849</ele>
        <time>2018-04-30T10:39:55Z</time>
      </trkpt>
      <trkpt lat="42.227068" lon="1.761762">
        <ele>1224.651</ele>
        <time>2018-04-30T10:39:45Z</time>
      </trkpt>
      <trkpt lat="42.226864" lon="1.761465">
        <ele>1222.021</ele>
        <time>2018-04-30T10:39:39Z</time>
      </trkpt>
      <trkpt lat="42.226277" lon="1.758317">
        <ele>1198.111</ele>
        <time>2018-04-30T10:39:04Z</time>
      </trkpt>
      <trkpt lat="42.225848" lon="1.757787">
        <ele>1195.989</ele>
        <time>2018-04-30T10:38:55Z</time>
      </trkpt>
      <trkpt lat="42.226073" lon="1.757358">
        <ele>1193.008</ele>
        <time>2018-04-30T10:38:47Z</time>
      </trkpt>
      <trkpt lat="42.226095" lon="1.756157">
        <ele>1184.514</ele>
        <time>2018-04-30T10:38:34Z</time>
      </trkpt>
      <trkpt lat="42.226273" lon="1.755532">
        <ele>1179.713</ele>
        <time>2018-04-30T10:38:26Z</time>
      </trkpt>
      <trkpt lat="42.226232" lon="1.754676">
        <ele>1173.972</ele>
        <time>2018-04-30T10:38:14Z</time>
      </trkpt>
      <trkpt lat="42.226579" lon="1.755138">
        <ele>1168.795</ele>
        <time>2018-04-30T10:37:58Z</time>
      </trkpt>
      <trkpt lat="42.226106" lon="1.753487">
        <ele>1163.735</ele>
        <time>2018-04-30T10:37:46Z</time>
      </trkpt>
      <trkpt lat="42.226162" lon="1.751545">
        <ele>1158.86</ele>
        <time>2018-04-30T10:37:29Z</time>
      </trkpt>
      <trkpt lat="42.227136" lon="1.749673">
        <ele>1149.951</ele>
        <time>2018-04-30T10:37:16Z</time>
      </trkpt>
      <trkpt lat="42.227216" lon="1.74828">
        <ele>1144.653</ele>
        <time>2018-04-30T10:37:08Z</time>
      </trkpt>
      <trkpt lat="42.226091" lon="1.74349">
        <ele>1127.133</ele>
        <time>2018-04-30T10:36:38Z</time>
      </trkpt>
      <trkpt lat="42.22499" lon="1.742305">
        <ele>1125.383</ele>
        <time>2018-04-30T10:36:26Z</time>
      </trkpt>
      <trkpt lat="42.224764" lon="1.741491">
        <ele>1110.331</ele>
        <time>2018-04-30T10:36:21Z</time>
      </trkpt>
      <trkpt lat="42.224906" lon="1.740707">
        <ele>1114.508</ele>
        <time>2018-04-30T10:36:16Z</time>
      </trkpt>
      <trkpt lat="42.225479" lon="1.74006">
        <ele>1135.52</ele>
        <time>2018-04-30T10:36:10Z</time>
      </trkpt>
      <trkpt lat="42.226012" lon="1.739934">
        <ele>1141.573</ele>
        <time>2018-04-30T10:36:06Z</time>
      </trkpt>
      <trkpt lat="42.227211" lon="1.739999">
        <ele>1153.992</ele>
        <time>2018-04-30T10:35:55Z</time>
      </trkpt>
    </trkseg>
  </trk>
</gpx>
